sensor_id;sensor_type;location;lat;lon;timestamp;P1;durP1;ratioP1;P2;durP2;ratioP2
10894;SDS011;5500;49.886;8.074;2022-08-19T00:01:24;17.40;;;15.60;;
10894;SDS011;5500;49.886;8.074;2022-08-19T00:03:57;18.70;;;17.07;;
10894;SDS011;5500;49.886;8.074;2022-08-19T00:06:25;17.13;;;15.43;;
10894;SDS011;5500;49.886;8.074;2022-08-19T00:08:53;16.63;;;15.13;;
10894;SDS011;5500;49.886;8.074;2022-08-19T00:11:21;16.53;;;14.97;;
10894;SDS011;5500;49.886;8.074;2022-08-19T00:13:51;18.20;;;16.33;;
10894;SDS011;5500;49.886;8.074;2022-08-19T00:16:22;17.93;;;16.43;;
10894;SDS011;5500;49.886;8.074;2022-08-19T00:18:52;17.57;;;15.87;;
10894;SDS011;5500;49.886;8.074;2022-08-19T00:21:21;17.43;;;15.77;;
10894;SDS011;5500;49.886;8.074;2022-08-19T00:23:49;18.17;;;16.10;;
10894;SDS011;5500;49.886;8.074;2022-08-19T00:26:17;16.33;;;14.93;;
10894;SDS011;5500;49.886;8.074;2022-08-19T00:28:44;19.03;;;16.57;;
10894;SDS011;5500;49.886;8.074;2022-08-19T00:31:12;17.33;;;15.60;;
10894;SDS011;5500;49.886;8.074;2022-08-19T00:33:43;18.00;;;16.27;;
10894;SDS011;5500;49.886;8.074;2022-08-19T00:36:11;16.90;;;15.40;;
10894;SDS011;5500;49.886;8.074;2022-08-19T00:38:39;17.63;;;15.87;;
10894;SDS011;5500;49.886;8.074;2022-08-19T00:41:09;17.30;;;15.67;;
10894;SDS011;5500;49.886;8.074;2022-08-19T00:43:39;17.73;;;15.90;;
10894;SDS011;5500;49.886;8.074;2022-08-19T00:46:07;17.07;;;15.27;;
10894;SDS011;5500;49.886;8.074;2022-08-19T00:48:35;18.03;;;16.30;;
10894;SDS011;5500;49.886;8.074;2022-08-19T00:51:04;17.13;;;15.73;;
10894;SDS011;5500;49.886;8.074;2022-08-19T00:53:33;16.53;;;15.13;;
10894;SDS011;5500;49.886;8.074;2022-08-19T00:56:01;18.83;;;17.03;;
10894;SDS011;5500;49.886;8.074;2022-08-19T00:58:32;17.60;;;16.20;;
10894;SDS011;5500;49.886;8.074;2022-08-19T01:01:01;17.53;;;15.30;;
10894;SDS011;5500;49.886;8.074;2022-08-19T01:03:29;17.67;;;16.17;;
10894;SDS011;5500;49.886;8.074;2022-08-19T01:06:18;17.50;;;15.80;;
10894;SDS011;5500;49.886;8.074;2022-08-19T01:08:46;17.87;;;16.17;;
10894;SDS011;5500;49.886;8.074;2022-08-19T01:11:15;17.90;;;16.30;;
10894;SDS011;5500;49.886;8.074;2022-08-19T01:13:43;19.67;;;17.80;;
10894;SDS011;5500;49.886;8.074;2022-08-19T01:16:15;19.27;;;17.33;;
10894;SDS011;5500;49.886;8.074;2022-08-19T01:18:44;17.63;;;15.93;;
10894;SDS011;5500;49.886;8.074;2022-08-19T01:21:12;17.20;;;15.60;;
10894;SDS011;5500;49.886;8.074;2022-08-19T01:23:47;17.27;;;15.80;;
10894;SDS011;5500;49.886;8.074;2022-08-19T01:26:16;17.27;;;15.63;;
10894;SDS011;5500;49.886;8.074;2022-08-19T01:28:47;19.07;;;17.30;;
10894;SDS011;5500;49.886;8.074;2022-08-19T01:31:18;19.50;;;17.60;;
10894;SDS011;5500;49.886;8.074;2022-08-19T01:33:53;17.43;;;15.93;;
10894;SDS011;5500;49.886;8.074;2022-08-19T01:36:24;18.07;;;16.47;;
10894;SDS011;5500;49.886;8.074;2022-08-19T01:38:55;18.03;;;16.27;;
10894;SDS011;5500;49.886;8.074;2022-08-19T01:41:24;17.30;;;15.70;;
10894;SDS011;5500;49.886;8.074;2022-08-19T01:43:52;17.93;;;16.10;;
10894;SDS011;5500;49.886;8.074;2022-08-19T01:46:40;18.60;;;16.77;;
10894;SDS011;5500;49.886;8.074;2022-08-19T01:49:08;18.63;;;16.87;;
10894;SDS011;5500;49.886;8.074;2022-08-19T01:51:36;17.30;;;15.70;;
10894;SDS011;5500;49.886;8.074;2022-08-19T01:54:07;17.17;;;15.50;;
10894;SDS011;5500;49.886;8.074;2022-08-19T01:56:35;19.00;;;17.30;;
10894;SDS011;5500;49.886;8.074;2022-08-19T01:59:03;17.40;;;15.90;;
10894;SDS011;5500;49.886;8.074;2022-08-19T02:01:32;17.83;;;16.27;;
10894;SDS011;5500;49.886;8.074;2022-08-19T02:04:01;18.60;;;17.00;;
10894;SDS011;5500;49.886;8.074;2022-08-19T02:06:29;18.93;;;17.20;;
10894;SDS011;5500;49.886;8.074;2022-08-19T02:08:57;17.47;;;15.87;;
10894;SDS011;5500;49.886;8.074;2022-08-19T02:11:27;16.70;;;15.20;;
10894;SDS011;5500;49.886;8.074;2022-08-19T02:13:57;17.87;;;16.03;;
10894;SDS011;5500;49.886;8.074;2022-08-19T02:16:25;17.60;;;15.90;;
10894;SDS011;5500;49.886;8.074;2022-08-19T02:18:53;17.37;;;15.67;;
10894;SDS011;5500;49.886;8.074;2022-08-19T02:21:22;17.73;;;16.13;;
10894;SDS011;5500;49.886;8.074;2022-08-19T02:23:50;17.00;;;15.27;;
10894;SDS011;5500;49.886;8.074;2022-08-19T02:26:18;18.30;;;16.23;;
10894;SDS011;5500;49.886;8.074;2022-08-19T02:28:47;18.23;;;16.53;;
10894;SDS011;5500;49.886;8.074;2022-08-19T02:31:16;17.80;;;16.10;;
10894;SDS011;5500;49.886;8.074;2022-08-19T02:33:45;18.30;;;16.50;;
10894;SDS011;5500;49.886;8.074;2022-08-19T02:36:13;17.70;;;16.13;;
10894;SDS011;5500;49.886;8.074;2022-08-19T02:38:46;18.63;;;16.40;;
10894;SDS011;5500;49.886;8.074;2022-08-19T02:41:21;16.33;;;14.90;;
10894;SDS011;5500;49.886;8.074;2022-08-19T02:43:53;17.17;;;15.57;;
10894;SDS011;5500;49.886;8.074;2022-08-19T02:46:41;16.93;;;15.20;;
10894;SDS011;5500;49.886;8.074;2022-08-19T02:49:10;16.10;;;14.80;;
10894;SDS011;5500;49.886;8.074;2022-08-19T02:51:40;16.63;;;15.03;;
10894;SDS011;5500;49.886;8.074;2022-08-19T02:54:09;17.27;;;15.57;;
10894;SDS011;5500;49.886;8.074;2022-08-19T02:56:37;16.73;;;15.13;;
10894;SDS011;5500;49.886;8.074;2022-08-19T02:59:08;16.30;;;14.93;;
10894;SDS011;5500;49.886;8.074;2022-08-19T03:01:38;16.90;;;15.40;;
10894;SDS011;5500;49.886;8.074;2022-08-19T03:04:09;16.93;;;15.43;;
10894;SDS011;5500;49.886;8.074;2022-08-19T03:06:38;16.77;;;15.13;;
10894;SDS011;5500;49.886;8.074;2022-08-19T03:09:07;16.03;;;14.50;;
10894;SDS011;5500;49.886;8.074;2022-08-19T03:11:35;16.43;;;14.80;;
10894;SDS011;5500;49.886;8.074;2022-08-19T03:14:03;16.53;;;15.00;;
10894;SDS011;5500;49.886;8.074;2022-08-19T03:16:34;17.27;;;15.57;;
10894;SDS011;5500;49.886;8.074;2022-08-19T03:19:07;17.77;;;15.47;;
10894;SDS011;5500;49.886;8.074;2022-08-19T03:21:35;16.70;;;15.27;;
10894;SDS011;5500;49.886;8.074;2022-08-19T03:24:03;16.43;;;14.83;;
10894;SDS011;5500;49.886;8.074;2022-08-19T03:26:33;17.70;;;15.93;;
10894;SDS011;5500;49.886;8.074;2022-08-19T03:29:01;18.00;;;16.50;;
10894;SDS011;5500;49.886;8.074;2022-08-19T03:31:37;18.63;;;17.03;;
10894;SDS011;5500;49.886;8.074;2022-08-19T03:34:19;18.20;;;16.47;;
10894;SDS011;5500;49.886;8.074;2022-08-19T03:36:48;17.77;;;16.17;;
10894;SDS011;5500;49.886;8.074;2022-08-19T03:39:16;17.83;;;16.13;;
10894;SDS011;5500;49.886;8.074;2022-08-19T03:41:44;18.63;;;16.83;;
10894;SDS011;5500;49.886;8.074;2022-08-19T03:44:14;17.67;;;16.10;;
10894;SDS011;5500;49.886;8.074;2022-08-19T03:46:46;18.27;;;16.67;;
10894;SDS011;5500;49.886;8.074;2022-08-19T03:49:15;18.33;;;16.73;;
10894;SDS011;5500;49.886;8.074;2022-08-19T03:51:44;17.33;;;15.83;;
10894;SDS011;5500;49.886;8.074;2022-08-19T03:54:13;18.60;;;16.90;;
10894;SDS011;5500;49.886;8.074;2022-08-19T03:56:43;18.13;;;16.43;;
10894;SDS011;5500;49.886;8.074;2022-08-19T03:59:13;17.60;;;15.97;;
10894;SDS011;5500;49.886;8.074;2022-08-19T04:01:42;18.43;;;16.57;;
10894;SDS011;5500;49.886;8.074;2022-08-19T04:04:11;18.80;;;17.10;;
10894;SDS011;5500;49.886;8.074;2022-08-19T04:06:40;20.20;;;18.30;;
10894;SDS011;5500;49.886;8.074;2022-08-19T04:09:08;18.73;;;17.13;;
10894;SDS011;5500;49.886;8.074;2022-08-19T04:11:38;18.97;;;17.23;;
10894;SDS011;5500;49.886;8.074;2022-08-19T04:14:10;17.30;;;15.67;;
10894;SDS011;5500;49.886;8.074;2022-08-19T04:16:43;19.03;;;17.30;;
10894;SDS011;5500;49.886;8.074;2022-08-19T04:19:14;17.23;;;15.57;;
10894;SDS011;5500;49.886;8.074;2022-08-19T04:21:43;16.60;;;15.03;;
10894;SDS011;5500;49.886;8.074;2022-08-19T04:24:11;17.93;;;16.30;;
10894;SDS011;5500;49.886;8.074;2022-08-19T04:26:39;18.60;;;16.80;;
10894;SDS011;5500;49.886;8.074;2022-08-19T04:29:08;17.87;;;16.17;;
10894;SDS011;5500;49.886;8.074;2022-08-19T04:31:38;17.83;;;16.20;;
10894;SDS011;5500;49.886;8.074;2022-08-19T04:34:07;18.03;;;16.33;;
10894;SDS011;5500;49.886;8.074;2022-08-19T04:36:39;18.13;;;16.53;;
10894;SDS011;5500;49.886;8.074;2022-08-19T04:39:11;17.97;;;16.27;;
10894;SDS011;5500;49.886;8.074;2022-08-19T04:41:40;17.80;;;16.30;;
10894;SDS011;5500;49.886;8.074;2022-08-19T04:44:25;17.73;;;16.03;;
10894;SDS011;5500;49.886;8.074;2022-08-19T04:46:58;16.83;;;15.30;;
10894;SDS011;5500;49.886;8.074;2022-08-19T04:49:27;18.10;;;16.20;;
10894;SDS011;5500;49.886;8.074;2022-08-19T04:51:57;17.40;;;15.00;;
10894;SDS011;5500;49.886;8.074;2022-08-19T04:54:25;16.27;;;14.77;;
10894;SDS011;5500;49.886;8.074;2022-08-19T04:57:04;15.80;;;14.33;;
10894;SDS011;5500;49.886;8.074;2022-08-19T04:59:35;17.37;;;14.87;;
10894;SDS011;5500;49.886;8.074;2022-08-19T05:02:03;14.47;;;13.13;;
10894;SDS011;5500;49.886;8.074;2022-08-19T05:04:32;14.63;;;13.17;;
10894;SDS011;5500;49.886;8.074;2022-08-19T05:07:01;16.17;;;14.60;;
10894;SDS011;5500;49.886;8.074;2022-08-19T05:09:29;15.27;;;13.67;;
10894;SDS011;5500;49.886;8.074;2022-08-19T05:12:17;13.80;;;12.40;;
10894;SDS011;5500;49.886;8.074;2022-08-19T05:14:45;14.70;;;13.23;;
10894;SDS011;5500;49.886;8.074;2022-08-19T05:17:14;14.63;;;13.27;;
10894;SDS011;5500;49.886;8.074;2022-08-19T05:20:02;14.37;;;13.07;;
10894;SDS011;5500;49.886;8.074;2022-08-19T05:22:50;17.40;;;14.30;;
10894;SDS011;5500;49.886;8.074;2022-08-19T05:25:19;17.37;;;14.80;;
10894;SDS011;5500;49.886;8.074;2022-08-19T05:27:48;15.23;;;13.70;;
10894;SDS011;5500;49.886;8.074;2022-08-19T05:30:16;15.93;;;14.30;;
10894;SDS011;5500;49.886;8.074;2022-08-19T05:33:04;16.33;;;14.63;;
10894;SDS011;5500;49.886;8.074;2022-08-19T05:35:32;16.87;;;14.97;;
10894;SDS011;5500;49.886;8.074;2022-08-19T05:38:01;16.47;;;14.53;;
10894;SDS011;5500;49.886;8.074;2022-08-19T05:40:29;15.37;;;13.83;;
10894;SDS011;5500;49.886;8.074;2022-08-19T05:42:57;16.17;;;14.63;;
10894;SDS011;5500;49.886;8.074;2022-08-19T05:45:25;16.73;;;15.07;;
10894;SDS011;5500;49.886;8.074;2022-08-19T05:47:54;16.90;;;15.27;;
10894;SDS011;5500;49.886;8.074;2022-08-19T05:50:22;16.10;;;14.57;;
10894;SDS011;5500;49.886;8.074;2022-08-19T05:52:49;16.40;;;14.83;;
10894;SDS011;5500;49.886;8.074;2022-08-19T05:55:19;17.50;;;15.70;;
10894;SDS011;5500;49.886;8.074;2022-08-19T05:57:48;16.77;;;14.77;;
10894;SDS011;5500;49.886;8.074;2022-08-19T06:00:16;15.57;;;14.07;;
10894;SDS011;5500;49.886;8.074;2022-08-19T06:02:49;15.87;;;14.37;;
10894;SDS011;5500;49.886;8.074;2022-08-19T06:05:18;15.60;;;14.20;;
10894;SDS011;5500;49.886;8.074;2022-08-19T06:07:46;16.60;;;13.63;;
10894;SDS011;5500;49.886;8.074;2022-08-19T06:10:14;16.77;;;14.37;;
10894;SDS011;5500;49.886;8.074;2022-08-19T06:12:43;15.00;;;13.63;;
10894;SDS011;5500;49.886;8.074;2022-08-19T06:15:12;15.00;;;13.70;;
10894;SDS011;5500;49.886;8.074;2022-08-19T06:17:40;16.77;;;15.13;;
10894;SDS011;5500;49.886;8.074;2022-08-19T06:20:11;17.17;;;13.07;;
10894;SDS011;5500;49.886;8.074;2022-08-19T06:22:40;14.20;;;12.37;;
10894;SDS011;5500;49.886;8.074;2022-08-19T06:25:09;14.50;;;13.00;;
10894;SDS011;5500;49.886;8.074;2022-08-19T06:27:37;14.20;;;12.83;;
10894;SDS011;5500;49.886;8.074;2022-08-19T06:30:27;13.60;;;12.20;;
10894;SDS011;5500;49.886;8.074;2022-08-19T06:32:55;14.07;;;11.17;;
10894;SDS011;5500;49.886;8.074;2022-08-19T06:35:22;13.73;;;12.40;;
10894;SDS011;5500;49.886;8.074;2022-08-19T06:37:51;13.47;;;12.17;;
10894;SDS011;5500;49.886;8.074;2022-08-19T06:40:19;15.77;;;12.13;;
10894;SDS011;5500;49.886;8.074;2022-08-19T06:42:47;13.00;;;11.87;;
10894;SDS011;5500;49.886;8.074;2022-08-19T06:45:20;12.73;;;11.47;;
10894;SDS011;5500;49.886;8.074;2022-08-19T06:47:51;13.63;;;11.77;;
10894;SDS011;5500;49.886;8.074;2022-08-19T06:50:22;13.00;;;11.70;;
10894;SDS011;5500;49.886;8.074;2022-08-19T06:52:50;12.90;;;11.30;;
10894;SDS011;5500;49.886;8.074;2022-08-19T06:55:19;11.90;;;10.70;;
10894;SDS011;5500;49.886;8.074;2022-08-19T06:57:46;12.37;;;11.20;;
10894;SDS011;5500;49.886;8.074;2022-08-19T07:00:15;12.00;;;10.90;;
10894;SDS011;5500;49.886;8.074;2022-08-19T07:02:43;12.37;;;11.23;;
10894;SDS011;5500;49.886;8.074;2022-08-19T07:05:22;13.73;;;12.07;;
10894;SDS011;5500;49.886;8.074;2022-08-19T07:07:49;12.03;;;10.83;;
10894;SDS011;5500;49.886;8.074;2022-08-19T07:10:17;13.20;;;11.77;;
10894;SDS011;5500;49.886;8.074;2022-08-19T07:12:45;13.27;;;11.50;;
10894;SDS011;5500;49.886;8.074;2022-08-19T07:15:13;11.93;;;10.87;;
10894;SDS011;5500;49.886;8.074;2022-08-19T07:17:44;12.53;;;11.40;;
10894;SDS011;5500;49.886;8.074;2022-08-19T07:20:17;12.07;;;10.87;;
10894;SDS011;5500;49.886;8.074;2022-08-19T07:22:47;13.97;;;11.30;;
10894;SDS011;5500;49.886;8.074;2022-08-19T07:25:15;12.73;;;11.60;;
10894;SDS011;5500;49.886;8.074;2022-08-19T07:27:44;13.60;;;12.33;;
10894;SDS011;5500;49.886;8.074;2022-08-19T07:30:19;12.23;;;10.90;;
10894;SDS011;5500;49.886;8.074;2022-08-19T07:32:51;13.70;;;11.93;;
10894;SDS011;5500;49.886;8.074;2022-08-19T07:35:19;13.67;;;11.83;;
10894;SDS011;5500;49.886;8.074;2022-08-19T07:37:48;13.03;;;11.63;;
10894;SDS011;5500;49.886;8.074;2022-08-19T07:40:16;12.63;;;10.27;;
10894;SDS011;5500;49.886;8.074;2022-08-19T07:42:43;12.43;;;11.30;;
10894;SDS011;5500;49.886;8.074;2022-08-19T07:45:11;14.27;;;12.87;;
10894;SDS011;5500;49.886;8.074;2022-08-19T07:47:39;14.33;;;12.53;;
10894;SDS011;5500;49.886;8.074;2022-08-19T07:50:24;12.50;;;11.20;;
10894;SDS011;5500;49.886;8.074;2022-08-19T07:52:53;15.37;;;13.23;;
10894;SDS011;5500;49.886;8.074;2022-08-19T07:55:23;14.20;;;12.80;;
10894;SDS011;5500;49.886;8.074;2022-08-19T07:58:08;12.33;;;11.00;;
10894;SDS011;5500;49.886;8.074;2022-08-19T08:00:37;14.37;;;12.50;;
10894;SDS011;5500;49.886;8.074;2022-08-19T08:03:05;11.63;;;10.23;;
10894;SDS011;5500;49.886;8.074;2022-08-19T08:05:32;13.80;;;12.50;;
10894;SDS011;5500;49.886;8.074;2022-08-19T08:08:19;11.50;;;10.30;;
10894;SDS011;5500;49.886;8.074;2022-08-19T08:11:13;14.83;;;13.37;;
10894;SDS011;5500;49.886;8.074;2022-08-19T08:13:45;15.57;;;13.30;;
10894;SDS011;5500;49.886;8.074;2022-08-19T08:16:29;9.77;;;8.87;;
10894;SDS011;5500;49.886;8.074;2022-08-19T08:18:59;14.43;;;13.07;;
10894;SDS011;5500;49.886;8.074;2022-08-19T08:21:32;15.67;;;13.53;;
10894;SDS011;5500;49.886;8.074;2022-08-19T08:24:02;14.73;;;13.33;;
10894;SDS011;5500;49.886;8.074;2022-08-19T08:26:30;13.27;;;12.07;;
10894;SDS011;5500;49.886;8.074;2022-08-19T08:28:59;14.87;;;13.37;;
10894;SDS011;5500;49.886;8.074;2022-08-19T08:31:36;13.90;;;12.60;;
10894;SDS011;5500;49.886;8.074;2022-08-19T08:34:03;14.10;;;12.77;;
10894;SDS011;5500;49.886;8.074;2022-08-19T08:36:31;13.70;;;12.40;;
10894;SDS011;5500;49.886;8.074;2022-08-19T08:38:59;12.57;;;11.27;;
10894;SDS011;5500;49.886;8.074;2022-08-19T08:41:31;13.23;;;11.93;;
10894;SDS011;5500;49.886;8.074;2022-08-19T08:44:03;14.93;;;12.20;;
10894;SDS011;5500;49.886;8.074;2022-08-19T08:46:34;14.57;;;13.10;;
10894;SDS011;5500;49.886;8.074;2022-08-19T08:49:06;14.50;;;12.57;;
10894;SDS011;5500;49.886;8.074;2022-08-19T08:51:43;13.63;;;11.43;;
10894;SDS011;5500;49.886;8.074;2022-08-19T08:54:27;11.10;;;10.10;;
10894;SDS011;5500;49.886;8.074;2022-08-19T08:57:01;11.27;;;10.30;;
10894;SDS011;5500;49.886;8.074;2022-08-19T08:59:34;12.67;;;11.57;;
10894;SDS011;5500;49.886;8.074;2022-08-19T09:02:03;12.53;;;11.43;;
10894;SDS011;5500;49.886;8.074;2022-08-19T09:04:31;13.37;;;12.07;;
10894;SDS011;5500;49.886;8.074;2022-08-19T09:07:02;14.00;;;12.67;;
10894;SDS011;5500;49.886;8.074;2022-08-19T09:10:02;15.03;;;13.63;;
10894;SDS011;5500;49.886;8.074;2022-08-19T09:12:38;13.93;;;12.50;;
10894;SDS011;5500;49.886;8.074;2022-08-19T09:15:15;15.50;;;13.90;;
10894;SDS011;5500;49.886;8.074;2022-08-19T09:17:59;14.07;;;12.80;;
10894;SDS011;5500;49.886;8.074;2022-08-19T09:20:28;16.30;;;14.60;;
10894;SDS011;5500;49.886;8.074;2022-08-19T09:22:58;16.30;;;14.90;;
10894;SDS011;5500;49.886;8.074;2022-08-19T09:25:26;14.30;;;13.00;;
10894;SDS011;5500;49.886;8.074;2022-08-19T09:27:56;13.90;;;12.67;;
10894;SDS011;5500;49.886;8.074;2022-08-19T09:30:38;12.20;;;11.00;;
10894;SDS011;5500;49.886;8.074;2022-08-19T09:33:08;12.33;;;11.23;;
10894;SDS011;5500;49.886;8.074;2022-08-19T09:35:36;12.40;;;11.33;;
10894;SDS011;5500;49.886;8.074;2022-08-19T09:38:19;11.32;;;10.23;;
10894;SDS011;5500;49.886;8.074;2022-08-19T09:40:46;11.45;;;10.35;;
10894;SDS011;5500;49.886;8.074;2022-08-19T09:43:17;10.40;;;9.40;;
10894;SDS011;5500;49.886;8.074;2022-08-19T09:45:59;10.20;;;9.20;;
10894;SDS011;5500;49.886;8.074;2022-08-19T09:48:27;8.82;;;8.13;;
10894;SDS011;5500;49.886;8.074;2022-08-19T09:51:01;7.35;;;6.75;;
10894;SDS011;5500;49.886;8.074;2022-08-19T09:53:30;6.03;;;5.43;;
10894;SDS011;5500;49.886;8.074;2022-08-19T09:55:59;7.30;;;6.57;;
10894;SDS011;5500;49.886;8.074;2022-08-19T09:58:30;6.03;;;5.53;;
10894;SDS011;5500;49.886;8.074;2022-08-19T10:00:59;6.68;;;6.03;;
10894;SDS011;5500;49.886;8.074;2022-08-19T10:03:28;5.82;;;5.35;;
10894;SDS011;5500;49.886;8.074;2022-08-19T10:05:58;6.05;;;5.55;;
10894;SDS011;5500;49.886;8.074;2022-08-19T10:08:28;6.03;;;5.20;;
10894;SDS011;5500;49.886;8.074;2022-08-19T10:10:57;7.63;;;6.90;;
10894;SDS011;5500;49.886;8.074;2022-08-19T10:13:46;6.72;;;5.97;;
10894;SDS011;5500;49.886;8.074;2022-08-19T10:16:15;5.88;;;5.47;;
10894;SDS011;5500;49.886;8.074;2022-08-19T10:18:46;6.28;;;5.25;;
10894;SDS011;5500;49.886;8.074;2022-08-19T10:21:16;6.13;;;5.13;;
10894;SDS011;5500;49.886;8.074;2022-08-19T10:23:46;6.30;;;5.35;;
10894;SDS011;5500;49.886;8.074;2022-08-19T10:26:17;5.63;;;5.22;;
10894;SDS011;5500;49.886;8.074;2022-08-19T10:28:48;6.88;;;6.20;;
10894;SDS011;5500;49.886;8.074;2022-08-19T10:31:17;7.45;;;6.38;;
10894;SDS011;5500;49.886;8.074;2022-08-19T10:34:13;6.78;;;6.25;;
10894;SDS011;5500;49.886;8.074;2022-08-19T10:36:53;8.30;;;7.60;;
10894;SDS011;5500;49.886;8.074;2022-08-19T10:39:27;7.28;;;6.55;;
10894;SDS011;5500;49.886;8.074;2022-08-19T10:41:56;8.32;;;6.30;;
10894;SDS011;5500;49.886;8.074;2022-08-19T10:44:26;6.18;;;5.57;;
10894;SDS011;5500;49.886;8.074;2022-08-19T10:46:58;5.72;;;5.13;;
10894;SDS011;5500;49.886;8.074;2022-08-19T10:49:26;5.70;;;5.20;;
10894;SDS011;5500;49.886;8.074;2022-08-19T10:51:54;6.40;;;5.80;;
10894;SDS011;5500;49.886;8.074;2022-08-19T10:54:45;7.20;;;6.43;;
10894;SDS011;5500;49.886;8.074;2022-08-19T10:57:34;7.90;;;7.15;;
10894;SDS011;5500;49.886;8.074;2022-08-19T11:00:23;7.57;;;6.78;;
10894;SDS011;5500;49.886;8.074;2022-08-19T11:02:52;7.40;;;5.65;;
10894;SDS011;5500;49.886;8.074;2022-08-19T11:05:20;6.78;;;6.18;;
10894;SDS011;5500;49.886;8.074;2022-08-19T11:07:49;8.00;;;6.25;;
10894;SDS011;5500;49.886;8.074;2022-08-19T11:10:18;6.07;;;5.47;;
10894;SDS011;5500;49.886;8.074;2022-08-19T11:12:47;5.82;;;5.13;;
10894;SDS011;5500;49.886;8.074;2022-08-19T11:15:20;7.28;;;6.18;;
10894;SDS011;5500;49.886;8.074;2022-08-19T11:17:50;6.95;;;6.25;;
10894;SDS011;5500;49.886;8.074;2022-08-19T11:20:20;7.30;;;6.65;;
10894;SDS011;5500;49.886;8.074;2022-08-19T11:22:50;7.30;;;6.63;;
10894;SDS011;5500;49.886;8.074;2022-08-19T11:25:18;6.82;;;6.25;;
10894;SDS011;5500;49.886;8.074;2022-08-19T11:27:46;6.13;;;5.20;;
10894;SDS011;5500;49.886;8.074;2022-08-19T11:30:17;5.55;;;5.05;;
10894;SDS011;5500;49.886;8.074;2022-08-19T11:32:46;6.30;;;4.72;;
10894;SDS011;5500;49.886;8.074;2022-08-19T11:35:15;5.68;;;5.28;;
10894;SDS011;5500;49.886;8.074;2022-08-19T11:37:42;5.35;;;4.88;;
10894;SDS011;5500;49.886;8.074;2022-08-19T11:40:11;6.03;;;5.43;;
10894;SDS011;5500;49.886;8.074;2022-08-19T11:42:39;5.68;;;4.97;;
10894;SDS011;5500;49.886;8.074;2022-08-19T11:45:22;6.88;;;5.07;;
10894;SDS011;5500;49.886;8.074;2022-08-19T11:47:51;5.60;;;5.10;;
10894;SDS011;5500;49.886;8.074;2022-08-19T11:50:20;5.40;;;5.00;;
10894;SDS011;5500;49.886;8.074;2022-08-19T11:52:49;5.93;;;4.20;;
10894;SDS011;5500;49.886;8.074;2022-08-19T11:55:17;4.30;;;3.88;;
10894;SDS011;5500;49.886;8.074;2022-08-19T11:57:45;3.80;;;3.50;;
10894;SDS011;5500;49.886;8.074;2022-08-19T12:00:13;4.22;;;3.83;;
10894;SDS011;5500;49.886;8.074;2022-08-19T12:02:41;5.85;;;4.13;;
10894;SDS011;5500;49.886;8.074;2022-08-19T12:05:11;4.18;;;3.78;;
10894;SDS011;5500;49.886;8.074;2022-08-19T12:07:38;5.93;;;3.80;;
10894;SDS011;5500;49.886;8.074;2022-08-19T12:10:10;3.85;;;3.55;;
10894;SDS011;5500;49.886;8.074;2022-08-19T12:12:38;5.88;;;3.70;;
10894;SDS011;5500;49.886;8.074;2022-08-19T12:15:08;4.65;;;3.72;;
10894;SDS011;5500;49.886;8.074;2022-08-19T12:17:38;4.10;;;3.80;;
10894;SDS011;5500;49.886;8.074;2022-08-19T12:20:06;5.60;;;3.83;;
10894;SDS011;5500;49.886;8.074;2022-08-19T12:22:37;3.70;;;3.40;;
10894;SDS011;5500;49.886;8.074;2022-08-19T12:25:05;3.88;;;3.50;;
10894;SDS011;5500;49.886;8.074;2022-08-19T12:27:34;4.22;;;3.80;;
10894;SDS011;5500;49.886;8.074;2022-08-19T12:30:07;8.02;;;3.85;;
10894;SDS011;5500;49.886;8.074;2022-08-19T12:32:38;4.53;;;3.22;;
10894;SDS011;5500;49.886;8.074;2022-08-19T12:35:06;4.18;;;3.30;;
10894;SDS011;5500;49.886;8.074;2022-08-19T12:37:35;4.40;;;3.40;;
10894;SDS011;5500;49.886;8.074;2022-08-19T12:40:05;3.85;;;3.55;;
10894;SDS011;5500;49.886;8.074;2022-08-19T12:42:33;3.60;;;3.30;;
10894;SDS011;5500;49.886;8.074;2022-08-19T12:45:01;3.72;;;3.17;;
10894;SDS011;5500;49.886;8.074;2022-08-19T12:47:31;3.75;;;3.25;;
10894;SDS011;5500;49.886;8.074;2022-08-19T12:50:03;2.92;;;2.55;;
10894;SDS011;5500;49.886;8.074;2022-08-19T12:52:34;4.00;;;3.35;;
10894;SDS011;5500;49.886;8.074;2022-08-19T12:55:05;3.75;;;3.35;;
10894;SDS011;5500;49.886;8.074;2022-08-19T12:57:35;4.82;;;3.67;;
10894;SDS011;5500;49.886;8.074;2022-08-19T13:00:04;4.13;;;3.70;;
10894;SDS011;5500;49.886;8.074;2022-08-19T13:02:37;5.20;;;3.45;;
10894;SDS011;5500;49.886;8.074;2022-08-19T13:05:06;3.70;;;3.38;;
10894;SDS011;5500;49.886;8.074;2022-08-19T13:07:35;3.25;;;3.05;;
10894;SDS011;5500;49.886;8.074;2022-08-19T13:10:06;3.30;;;3.03;;
10894;SDS011;5500;49.886;8.074;2022-08-19T13:12:37;3.10;;;2.90;;
10894;SDS011;5500;49.886;8.074;2022-08-19T13:15:05;4.18;;;3.53;;
10894;SDS011;5500;49.886;8.074;2022-08-19T13:17:36;7.18;;;3.55;;
10894;SDS011;5500;49.886;8.074;2022-08-19T13:20:05;3.67;;;3.38;;
10894;SDS011;5500;49.886;8.074;2022-08-19T13:22:35;3.67;;;3.10;;
10894;SDS011;5500;49.886;8.074;2022-08-19T13:25:03;3.63;;;3.35;;
10894;SDS011;5500;49.886;8.074;2022-08-19T13:27:33;5.60;;;3.83;;
10894;SDS011;5500;49.886;8.074;2022-08-19T13:30:01;4.40;;;4.00;;
10894;SDS011;5500;49.886;8.074;2022-08-19T13:32:48;5.40;;;3.40;;
10894;SDS011;5500;49.886;8.074;2022-08-19T13:35:33;3.95;;;3.65;;
10894;SDS011;5500;49.886;8.074;2022-08-19T13:38:01;3.67;;;3.38;;
10894;SDS011;5500;49.886;8.074;2022-08-19T13:40:34;3.35;;;3.05;;
10894;SDS011;5500;49.886;8.074;2022-08-19T13:43:05;4.55;;;3.60;;
10894;SDS011;5500;49.886;8.074;2022-08-19T13:45:48;6.50;;;3.35;;
10894;SDS011;5500;49.886;8.074;2022-08-19T13:48:16;3.80;;;3.50;;
10894;SDS011;5500;49.886;8.074;2022-08-19T13:50:44;4.55;;;3.83;;
10894;SDS011;5500;49.886;8.074;2022-08-19T13:53:14;6.30;;;4.03;;
10894;SDS011;5500;49.886;8.074;2022-08-19T13:55:43;4.68;;;3.67;;
10894;SDS011;5500;49.886;8.074;2022-08-19T13:58:12;4.32;;;3.92;;
10894;SDS011;5500;49.886;8.074;2022-08-19T14:00:42;3.90;;;3.60;;
10894;SDS011;5500;49.886;8.074;2022-08-19T14:03:10;4.07;;;3.78;;
10894;SDS011;5500;49.886;8.074;2022-08-19T14:05:39;4.50;;;4.15;;
10894;SDS011;5500;49.886;8.074;2022-08-19T14:08:07;4.85;;;4.10;;
10894;SDS011;5500;49.886;8.074;2022-08-19T14:10:35;4.70;;;4.22;;
10894;SDS011;5500;49.886;8.074;2022-08-19T14:13:03;5.60;;;4.57;;
10894;SDS011;5500;49.886;8.074;2022-08-19T14:15:32;5.18;;;4.25;;
10894;SDS011;5500;49.886;8.074;2022-08-19T14:18:00;6.45;;;4.00;;
10894;SDS011;5500;49.886;8.074;2022-08-19T14:20:28;7.43;;;4.30;;
10894;SDS011;5500;49.886;8.074;2022-08-19T14:22:56;6.75;;;4.65;;
10894;SDS011;5500;49.886;8.074;2022-08-19T14:25:24;5.03;;;4.32;;
10894;SDS011;5500;49.886;8.074;2022-08-19T14:27:53;6.43;;;4.60;;
10894;SDS011;5500;49.886;8.074;2022-08-19T14:30:22;4.70;;;4.30;;
10894;SDS011;5500;49.886;8.074;2022-08-19T14:32:54;5.03;;;4.63;;
10894;SDS011;5500;49.886;8.074;2022-08-19T14:35:22;5.05;;;4.57;;
10894;SDS011;5500;49.886;8.074;2022-08-19T14:37:50;5.95;;;4.43;;
10894;SDS011;5500;49.886;8.074;2022-08-19T14:40:20;4.88;;;4.07;;
10894;SDS011;5500;49.886;8.074;2022-08-19T14:42:51;5.03;;;4.50;;
10894;SDS011;5500;49.886;8.074;2022-08-19T14:45:25;4.97;;;4.03;;
10894;SDS011;5500;49.886;8.074;2022-08-19T14:47:55;6.80;;;4.40;;
10894;SDS011;5500;49.886;8.074;2022-08-19T14:50:26;5.03;;;4.63;;
10894;SDS011;5500;49.886;8.074;2022-08-19T14:52:57;4.93;;;4.43;;
10894;SDS011;5500;49.886;8.074;2022-08-19T14:55:26;6.65;;;4.82;;
10894;SDS011;5500;49.886;8.074;2022-08-19T14:57:54;5.78;;;4.63;;
10894;SDS011;5500;49.886;8.074;2022-08-19T15:00:23;4.72;;;4.43;;
10894;SDS011;5500;49.886;8.074;2022-08-19T15:02:51;5.28;;;4.85;;
10894;SDS011;5500;49.886;8.074;2022-08-19T15:05:22;5.10;;;4.60;;